createdAt,value
2022-11-28T00:02:02.984Z,47.80
2022-11-28T00:07:05.561Z,47.00
2022-11-28T00:12:08.221Z,53.10
2022-11-28T00:17:10.680Z,47.10
2022-11-28T00:22:13.168Z,46.10
2022-11-28T00:27:15.640Z,39.90
2022-11-28T00:32:20.551Z,43.40
2022-11-28T00:37:23.041Z,37.20
2022-11-28T00:42:25.574Z,38.50
2022-11-28T00:47:28.067Z,37.60
2022-11-28T00:52:32.719Z,40.90
2022-11-28T00:57:35.218Z,43.40
2022-11-28T01:02:37.820Z,37.80
2022-11-28T01:07:42.435Z,40.00
2022-11-28T01:12:45.055Z,43.50
2022-11-28T01:17:47.593Z,38.60
2022-11-28T01:22:50.080Z,39.10
2022-11-28T01:27:52.591Z,41.30
2022-11-28T01:32:55.115Z,35.20
2022-11-28T01:37:57.564Z,35.90
2022-11-28T01:43:00.086Z,32.40
2022-11-28T01:48:03.825Z,34.50
2022-11-28T01:53:09.295Z,31.00
2022-11-28T01:58:12.684Z,35.20
2022-11-28T02:03:20.838Z,33.70
2022-11-28T02:08:25.427Z,37.60
2022-11-28T02:13:58.216Z,33.80
2022-11-28T02:19:25.368Z,34.60
2022-11-28T02:24:30.794Z,35.60
2022-11-28T02:29:36.172Z,40.20
2022-11-28T02:34:54.584Z,29.00
2022-11-28T02:40:05.576Z,21.90
2022-11-28T02:45:13.594Z,24.70
2022-11-28T02:50:22.059Z,19.60
2022-11-28T02:55:26.350Z,20.60
2022-11-28T03:00:32.005Z,20.50
2022-11-28T03:05:46.108Z,21.80
2022-11-28T03:10:54.482Z,20.30
2022-11-28T03:16:07.640Z,19.10
2022-11-28T03:21:17.739Z,20.70
2022-11-28T03:26:34.923Z,20.10
2022-11-28T03:31:43.088Z,18.30
2022-11-28T03:36:52.320Z,17.70
2022-11-28T03:41:59.741Z,20.70
2022-11-28T03:47:05.590Z,22.10
2022-11-28T03:52:14.764Z,20.80
2022-11-28T03:57:25.100Z,22.70
2022-11-28T04:02:34.993Z,21.10
2022-11-28T04:07:45.924Z,21.10
2022-11-28T04:12:54.481Z,21.40
2022-11-28T04:18:00.624Z,22.80
2022-11-28T04:23:09.732Z,22.10
2022-11-28T04:28:18.574Z,18.60
2022-11-28T04:33:24.751Z,24.60
2022-11-28T04:38:29.596Z,21.10
2022-11-28T04:43:37.201Z,19.30
2022-11-28T04:48:39.750Z,24.20
2022-11-28T04:53:45.321Z,20.40
2022-11-28T04:58:50.506Z,20.20
2022-11-28T05:03:54.134Z,21.40
2022-11-28T05:08:56.720Z,20.60
2022-11-28T05:13:59.355Z,18.90
2022-11-28T05:19:01.918Z,20.70
2022-11-28T05:24:04.661Z,19.30
2022-11-28T05:29:07.119Z,20.50
2022-11-28T05:34:09.605Z,19.60
2022-11-28T05:39:12.233Z,19.20
2022-11-28T05:44:16.850Z,19.60
2022-11-28T05:49:21.555Z,22.80
2022-11-28T05:54:24.277Z,19.30
2022-11-28T05:59:26.798Z,18.50
2022-11-28T06:04:29.337Z,24.70
2022-11-28T06:09:31.917Z,19.80
2022-11-28T06:14:34.499Z,19.90
2022-11-28T06:19:37.186Z,16.90
2022-11-28T06:24:39.635Z,20.00
2022-11-28T06:29:42.439Z,21.60
2022-11-28T06:34:45.109Z,22.30
2022-11-28T06:39:47.657Z,15.70
2022-11-28T06:44:50.380Z,18.20
2022-11-28T06:49:52.967Z,20.50
2022-11-28T06:54:57.728Z,16.60
2022-11-28T07:00:00.342Z,17.10
2022-11-28T07:05:03.175Z,18.50
2022-11-28T07:10:06.569Z,21.90
2022-11-28T07:15:09.847Z,20.90
2022-11-28T07:20:12.878Z,17.80
2022-11-28T07:25:15.970Z,15.70
2022-11-28T07:30:19.966Z,10.90
2022-11-28T07:35:22.476Z,18.30
2022-11-28T07:40:25.020Z,21.20
2022-11-28T07:45:41.955Z,15.60
2022-11-28T07:50:50.298Z,17.10
2022-11-28T07:55:52.916Z,18.10
2022-11-28T08:00:55.431Z,16.70
2022-11-28T08:06:02.868Z,12.00
2022-11-28T08:11:08.265Z,15.40
2022-11-28T08:16:14.514Z,20.60
2022-11-28T08:26:28.913Z,14.90
2022-11-28T08:31:35.065Z,16.30
2022-11-28T08:36:40.020Z,17.90
2022-11-28T08:41:42.729Z,21.60
2022-11-28T08:46:45.313Z,19.00
2022-11-28T08:51:47.848Z,16.50
2022-11-28T08:56:50.771Z,22.10
2022-11-28T09:01:54.249Z,18.00
2022-11-28T09:06:56.799Z,16.30
2022-11-28T09:11:59.307Z,19.50
2022-11-28T09:17:02.069Z,14.50
2022-11-28T09:22:04.596Z,15.10
2022-11-28T09:27:07.032Z,14.60
2022-11-28T09:32:09.518Z,13.30
2022-11-28T09:37:12.158Z,12.80
2022-11-28T09:42:27.473Z,14.00
2022-11-28T09:47:32.698Z,16.60
2022-11-28T09:52:47.456Z,18.20
2022-11-28T09:57:52.239Z,16.60
2022-11-28T10:03:00.588Z,19.10
2022-11-28T10:08:13.920Z,18.90
2022-11-28T10:13:24.391Z,22.20
2022-11-28T10:18:35.062Z,20.80
2022-11-28T10:23:43.809Z,23.80
2022-11-28T10:28:50.316Z,21.20
2022-11-28T10:34:17.384Z,21.60
2022-11-28T10:39:19.982Z,21.20
2022-11-28T10:44:31.915Z,19.90
2022-11-28T10:49:50.260Z,21.40
2022-11-28T10:55:07.305Z,21.10
2022-11-28T11:00:13.737Z,23.20
2022-11-28T11:05:36.525Z,22.60
2022-11-28T11:10:46.603Z,22.50
2022-11-28T11:16:02.297Z,22.50
2022-11-28T11:21:10.137Z,25.70
2022-11-28T11:26:18.500Z,24.00
2022-11-28T11:31:28.264Z,26.10
2022-11-28T11:36:34.533Z,24.00
2022-11-28T11:41:39.999Z,23.00
2022-11-28T11:46:48.710Z,27.00
2022-11-28T11:51:59.327Z,26.20
2022-11-28T11:57:30.838Z,25.80
2022-11-28T12:02:35.105Z,22.50
2022-11-28T12:07:48.720Z,19.00
2022-11-28T12:12:51.255Z,28.40
2022-11-28T12:17:59.625Z,30.00
2022-11-28T12:23:04.706Z,25.60
2022-11-28T12:28:12.238Z,24.70
2022-11-28T12:33:18.827Z,34.70
2022-11-28T12:38:36.499Z,29.30
2022-11-28T12:43:42.589Z,24.20
2022-11-28T12:48:53.673Z,26.20
2022-11-28T12:54:06.279Z,35.00
2022-11-28T12:59:14.985Z,34.90
2022-11-28T13:04:27.197Z,29.80
2022-11-28T13:09:34.457Z,30.10
2022-11-28T13:14:40.828Z,33.10
2022-11-28T13:19:52.067Z,33.00
2022-11-28T13:26:05.551Z,34.00
2022-11-28T13:31:22.935Z,29.60
2022-11-28T13:42:28.789Z,29.60
2022-11-28T13:47:34.425Z,26.30
2022-11-28T13:52:42.376Z,28.90
2022-11-28T13:57:44.882Z,28.90
2022-11-28T14:02:58.837Z,23.50
2022-11-28T14:08:03.908Z,28.00
2022-11-28T14:13:29.658Z,22.50
2022-11-28T14:18:57.122Z,28.30
2022-11-28T14:24:01.079Z,15.80
2022-11-28T14:29:06.049Z,20.00
2022-11-28T14:34:31.397Z,23.00
2022-11-28T14:39:34.881Z,23.80
2022-11-28T14:44:45.610Z,25.80
2022-11-28T14:49:48.929Z,22.60
2022-11-28T14:54:53.473Z,24.70
2022-11-28T14:59:58.491Z,25.40
2022-11-28T15:05:04.891Z,23.70
2022-11-28T15:10:16.254Z,22.10
2022-11-28T15:15:20.376Z,25.30
2022-11-28T15:20:29.788Z,28.50
2022-11-28T15:25:37.145Z,23.10
2022-11-28T15:30:46.149Z,20.50
2022-11-28T15:36:13.007Z,19.70
2022-11-28T15:41:21.096Z,24.00
2022-11-28T15:46:29.482Z,30.30
2022-11-28T15:51:35.456Z,31.80
2022-11-28T15:56:37.951Z,26.90
2022-11-28T16:01:40.690Z,30.20
2022-11-28T16:06:50.270Z,28.10
2022-11-28T16:11:54.271Z,28.40
2022-11-28T16:16:59.287Z,19.70
2022-11-28T16:22:18.928Z,29.60
2022-11-28T16:27:27.298Z,30.20
2022-11-28T16:32:37.872Z,24.50
2022-11-28T16:37:40.477Z,28.90
2022-11-28T16:42:52.295Z,28.10
2022-11-28T16:48:00.243Z,33.80
2022-11-28T16:53:03.606Z,28.70
2022-11-28T16:58:11.428Z,28.50
2022-11-28T17:03:19.788Z,33.80
2022-11-28T17:08:28.981Z,30.60
2022-11-28T17:13:33.075Z,28.60
2022-11-28T17:18:35.526Z,31.10
2022-11-28T17:23:38.920Z,35.10
2022-11-28T17:28:41.501Z,35.60
2022-11-28T17:33:44.983Z,41.30
2022-11-28T17:38:47.574Z,36.60
2022-11-28T17:43:50.087Z,41.80
2022-11-28T17:48:52.611Z,43.90
2022-11-28T17:53:55.094Z,37.10
2022-11-28T17:58:57.613Z,41.50
2022-11-28T18:04:00.151Z,41.20
2022-11-28T18:09:11.392Z,42.50
2022-11-28T18:14:17.249Z,39.50
2022-11-28T18:19:22.255Z,42.20
2022-11-28T18:24:24.741Z,42.10
2022-11-28T18:29:27.202Z,43.00
2022-11-28T18:34:29.769Z,43.20
2022-11-28T18:39:33.073Z,44.10
2022-11-28T18:44:35.598Z,36.60
2022-11-28T18:49:38.097Z,37.50
2022-11-28T18:54:40.579Z,34.10
2022-11-28T18:59:49.926Z,35.70
2022-11-28T19:04:55.705Z,26.70
2022-11-28T19:09:58.193Z,35.20
2022-11-28T19:15:02.659Z,40.70
2022-11-28T19:20:06.244Z,39.30
2022-11-28T19:25:08.923Z,39.90
2022-11-28T19:30:11.850Z,41.10
2022-11-28T19:35:14.499Z,42.60
2022-11-28T19:40:17.013Z,47.80
2022-11-28T19:45:19.992Z,44.00
2022-11-28T19:50:22.520Z,42.00
2022-11-28T19:55:25.057Z,42.60
2022-11-28T20:00:27.563Z,40.00
2022-11-28T20:05:31.636Z,42.10
2022-11-28T20:10:36.423Z,41.90
2022-11-28T20:15:38.873Z,44.80
2022-11-28T20:20:41.406Z,40.20
2022-11-28T20:25:43.883Z,42.90
2022-11-28T20:30:46.363Z,43.40
2022-11-28T20:35:48.912Z,44.80
2022-11-28T20:40:51.397Z,44.90
2022-11-28T20:45:54.082Z,41.30
2022-11-28T20:50:56.782Z,42.50
2022-11-28T20:56:02.784Z,42.10
2022-11-28T21:01:05.731Z,39.30
2022-11-28T21:06:08.407Z,39.20
2022-11-28T21:11:30.574Z,38.90
2022-11-28T21:16:37.503Z,39.20
2022-11-28T21:21:42.684Z,33.70
2022-11-28T21:26:51.063Z,42.20
2022-11-28T21:31:55.931Z,34.70
2022-11-28T21:36:58.501Z,18.90
2022-11-28T21:42:02.163Z,35.80
2022-11-28T21:47:05.435Z,35.50
2022-11-28T21:52:09.327Z,21.90
2022-11-28T21:57:11.817Z,29.10
2022-11-28T22:02:14.942Z,29.70
2022-11-28T22:07:17.713Z,24.80
2022-11-28T22:12:20.319Z,29.60
2022-11-28T22:17:22.841Z,29.90
2022-11-28T22:22:27.427Z,28.70
2022-11-28T22:27:31.989Z,29.40
2022-11-28T22:32:34.554Z,15.40
2022-11-28T22:37:37.106Z,29.10
2022-11-28T22:42:39.597Z,31.20
2022-11-28T22:47:42.116Z,30.60
2022-11-28T22:52:44.663Z,34.70
2022-11-28T22:57:47.253Z,29.70
2022-11-28T23:02:49.893Z,27.80
2022-11-28T23:07:52.659Z,26.20
2022-11-28T23:12:57.511Z,25.00
2022-11-28T23:18:00.043Z,26.00
2022-11-28T23:23:02.543Z,29.10
2022-11-28T23:28:05.021Z,29.20
2022-11-28T23:33:07.590Z,29.20
2022-11-28T23:38:10.112Z,28.00
2022-11-28T23:43:12.623Z,23.20
2022-11-28T23:48:16.390Z,20.70
2022-11-28T23:53:19.065Z,27.50
2022-11-28T23:58:24.061Z,30.70
